Time;durP1;ratioP1;P1;durP2;ratioP2;P2;SDS_P1;SDS_P2;PMS_P1;PMS_P2;Temp;Humidity;BMP_temperature;BMP_pressure;BME280_temperature;BME280_humidity;BME280_pressure;Samples;Min_cycle;Max_cycle;Signal;HPM_P1;HPM_P2
2022/05/11 00:00:39;;;;;;;7.60;7.10;;;20.00;1.00;;;;;;5097644;28;20445;-60
2022/05/11 00:03:05;;;;;;;8.13;7.33;;;20.00;1.00;;;;;;5102134;28;20481;-60
2022/05/11 00:05:30;;;;;;;7.97;7.27;;;20.00;1.00;;;;;;5108087;28;20465;-59
2022/05/11 00:07:56;;;;;;;8.17;7.50;;;20.10;1.00;;;;;;5099793;28;20302;-59
2022/05/11 00:10:22;;;;;;;7.67;7.07;;;20.00;1.00;;;;;;5100692;28;20254;-59
2022/05/11 00:12:48;;;;;;;8.90;8.30;;;20.00;1.00;;;;;;5099192;28;20240;-59
2022/05/11 00:15:17;;;;;;;7.70;7.00;;;20.00;1.00;;;;;;5106972;28;20507;-59
2022/05/11 00:17:43;;;;;;;8.67;7.87;;;20.00;1.00;;;;;;5101971;28;20443;-59
2022/05/11 00:20:10;;;;;;;10.00;8.07;;;19.90;1.00;;;;;;5110342;28;20443;-59
2022/05/11 00:22:37;;;;;;;7.97;7.37;;;19.90;1.00;;;;;;5102421;28;20202;-59
2022/05/11 00:25:05;;;;;;;9.20;7.07;;;19.90;1.00;;;;;;5105227;28;20455;-59
2022/05/11 00:27:31;;;;;;;7.90;7.30;;;20.00;1.00;;;;;;5104745;28;20444;-59
2022/05/11 00:29:57;;;;;;;8.47;7.80;;;20.00;1.00;;;;;;5097444;28;20447;-59
2022/05/11 00:32:24;;;;;;;7.87;7.30;;;20.00;1.00;;;;;;5109173;28;21183;-60
2022/05/11 00:34:50;;;;;;;7.93;7.30;;;20.00;1.00;;;;;;5104882;28;20183;-60
2022/05/11 00:37:15;;;;;;;8.30;7.60;;;20.00;1.00;;;;;;5096717;28;21273;-60
2022/05/11 00:39:41;;;;;;;7.97;7.37;;;20.00;1.00;;;;;;5106188;28;20182;-58
2022/05/11 00:42:07;;;;;;;7.97;7.27;;;20.10;1.00;;;;;;5107444;28;20182;-59
2022/05/11 00:44:33;;;;;;;8.67;7.87;;;20.00;1.00;;;;;;5103285;28;20587;-59
2022/05/11 00:47:04;;;;;;;7.77;7.03;;;19.90;1.00;;;;;;5109246;28;20216;-59
2022/05/11 00:49:44;;;;;;;9.90;8.10;;;19.80;1.00;;;;;;5109932;28;20559;-59
2022/05/11 00:52:18;;;;;;;9.30;8.33;;;19.80;1.00;;;;;;5111202;28;20964;-58
2022/05/11 00:54:59;;;;;;;8.37;7.47;;;19.70;1.00;;;;;;5101762;28;20459;-58
2022/05/11 00:57:48;;;;;;;8.20;7.50;;;19.60;1.00;;;;;;5106965;28;20448;-58
2022/05/11 01:00:14;;;;;;;8.77;7.97;;;19.60;1.00;;;;;;5100040;28;20483;-58
2022/05/11 01:02:42;;;;;;;7.93;7.33;;;19.50;1.00;;;;;;5109674;28;20436;-59
2022/05/11 01:05:08;;;;;;;8.20;7.43;;;19.40;1.00;;;;;;5104552;28;20554;-59
2022/05/11 01:07:35;;;;;;;8.27;7.67;;;19.30;1.00;;;;;;5099936;28;20428;-60
2022/05/11 01:10:01;;;;;;;9.87;8.90;;;19.30;1.00;;;;;;5099767;28;20448;-59
2022/05/11 01:12:32;;;;;;;8.53;7.83;;;19.20;1.00;;;;;;5103135;28;20455;-59
2022/05/11 01:15:00;;;;;;;9.33;8.33;;;19.10;1.00;;;;;;5093795;28;20476;-59
2022/05/11 01:17:28;;;;;;;8.50;7.50;;;19.10;1.00;;;;;;5097832;28;20479;-58
2022/05/11 01:19:54;;;;;;;8.30;7.60;;;19.00;1.00;;;;;;5108185;28;20452;-59
2022/05/11 01:22:32;;;;;;;7.60;7.00;;;19.00;1.00;;;;;;5108532;28;20481;-59
2022/05/11 01:24:58;;;;;;;9.10;8.30;;;19.00;1.00;;;;;;5108664;28;20196;-58
2022/05/11 01:27:33;;;;;;;8.57;7.87;;;19.00;1.00;;;;;;5098596;28;20448;-58
2022/05/11 01:30:14;;;;;;;8.80;7.83;;;19.00;1.00;;;;;;5096066;28;20950;-60
2022/05/11 01:32:42;;;;;;;9.33;8.53;;;19.00;1.00;;;;;;5101394;28;20922;-59
2022/05/11 01:35:36;;;;;;;8.67;7.77;;;19.00;1.00;;;;;;5105334;28;20440;-58
2022/05/11 01:38:28;;;;;;;8.57;7.97;;;19.00;1.00;;;;;;5102103;28;20452;-58
2022/05/11 01:40:55;;;;;;;8.57;7.97;;;19.00;1.00;;;;;;5102239;28;20440;-59
2022/05/11 01:43:25;;;;;;;8.20;7.60;;;19.00;1.00;;;;;;5105228;28;20523;-59
2022/05/11 01:45:51;;;;;;;8.50;7.80;;;18.90;1.00;;;;;;5107993;28;21110;-59
2022/05/11 01:48:17;;;;;;;8.80;8.10;;;18.90;1.00;;;;;;5102407;28;20555;-57
2022/05/11 01:50:43;;;;;;;8.53;7.90;;;18.90;1.00;;;;;;5095741;28;20210;-59
2022/05/11 01:53:10;;;;;;;9.60;8.60;;;18.90;1.00;;;;;;5100987;28;20520;-58
2022/05/11 01:55:35;;;;;;;9.03;8.20;;;18.80;1.00;;;;;;5095093;28;20828;-58
2022/05/11 01:58:06;;;;;;;8.37;7.77;;;18.70;1.00;;;;;;5105721;28;20475;-59
2022/05/11 02:00:33;;;;;;;8.40;7.70;;;18.70;1.00;;;;;;5104528;28;20466;-59
2022/05/11 02:02:59;;;;;;;9.00;8.20;;;;;;;;;;5097086;28;20543;-58
2022/05/11 02:08:09;;;;;;;9.03;8.33;;;18.40;1.00;;;;;;5096008;28;21016;-58
2022/05/11 02:10:35;;;;;;;9.60;8.80;;;;;;;;;;5097285;28;20441;-58
2022/05/11 02:13:01;;;;;;;8.80;8.07;;;18.30;1.00;;;;;;5106379;28;20301;-58
2022/05/11 02:15:27;;;;;;;9.10;8.33;;;18.20;1.00;;;;;;5096878;28;20456;-58
2022/05/11 02:17:53;;;;;;;9.27;8.37;;;18.20;1.00;;;;;;5102882;28;20195;-59
2022/05/11 02:20:20;;;;;;;8.87;8.17;;;18.20;1.00;;;;;;5106575;28;20444;-59
2022/05/11 02:22:47;;;;;;;8.33;7.57;;;18.20;1.00;;;;;;5096531;28;20808;-58
2022/05/11 02:25:15;;;;;;;11.37;8.47;;;18.20;1.00;;;;;;5091565;28;20519;-59
2022/05/11 02:27:41;;;;;;;8.83;8.13;;;18.20;1.00;;;;;;5102097;28;20457;-59
2022/05/11 02:30:10;;;;;;;8.20;7.60;;;18.30;1.00;;;;;;5099902;28;20442;-59
2022/05/11 02:32:36;;;;;;;8.70;7.90;;;18.20;1.00;;;;;;5098386;28;20440;-59
2022/05/11 02:35:15;;;;;;;8.97;8.27;;;18.20;1.00;;;;;;5103549;28;20566;-57
2022/05/11 02:37:53;;;;;;;8.13;7.50;;;18.20;1.00;;;;;;5103856;28;20455;-58
2022/05/11 02:40:25;;;;;;;9.13;8.47;;;18.20;1.00;;;;;;5101653;28;20482;-58
2022/05/11 02:42:52;;;;;;;10.90;8.53;;;18.30;1.00;;;;;;5099707;28;20948;-58
2022/05/11 02:45:18;;;;;;;9.20;8.50;;;18.30;1.00;;;;;;5109952;28;20860;-59
2022/05/11 02:47:44;;;;;;;8.60;7.90;;;18.30;1.00;;;;;;5107424;28;21029;-59
2022/05/11 02:50:12;;;;;;;8.40;7.80;;;18.30;1.00;;;;;;5095938;28;20479;-58
2022/05/11 02:52:37;;;;;;;7.97;7.30;;;18.40;1.00;;;;;;5102899;28;20944;-61
2022/05/11 02:55:03;;;;;;;9.83;9.00;;;18.40;1.00;;;;;;5105345;28;20497;-59
2022/05/11 02:57:29;;;;;;;8.47;7.87;;;18.40;1.00;;;;;;5096081;28;20261;-58
2022/05/11 02:59:54;;;;;;;8.57;7.97;;;18.40;1.00;;;;;;5095107;28;20644;-59
2022/05/11 03:02:21;;;;;;;9.10;8.20;;;18.40;1.00;;;;;;5104870;28;20201;-58
2022/05/11 03:04:48;;;;;;;9.70;8.90;;;18.40;1.00;;;;;;5106687;28;20173;-59
2022/05/11 03:07:13;;;;;;;8.90;8.07;;;18.30;1.00;;;;;;5106654;28;20531;-57
2022/05/11 03:09:39;;;;;;;9.87;9.07;;;18.30;1.00;;;;;;5096116;28;20563;-59
2022/05/11 03:12:05;;;;;;;8.90;8.20;;;18.30;1.00;;;;;;5106247;28;20726;-59
2022/05/11 03:14:30;;;;;;;8.80;7.90;;;18.30;1.00;;;;;;5106003;28;20520;-59
2022/05/11 03:16:56;;;;;;;9.50;8.80;;;18.30;1.00;;;;;;5103856;28;20451;-58
2022/05/11 03:19:21;;;;;;;10.30;9.40;;;18.30;1.00;;;;;;5084254;28;20173;-59
2022/05/11 03:21:47;;;;;;;9.37;8.67;;;18.30;1.00;;;;;;5103657;28;20665;-59
2022/05/11 03:24:13;;;;;;;9.33;8.33;;;18.30;1.00;;;;;;5096141;28;20258;-59
2022/05/11 03:26:38;;;;;;;9.30;8.60;;;18.30;1.00;;;;;;5109114;28;20639;-59
2022/05/11 03:29:05;;;;;;;9.80;9.03;;;18.20;1.00;;;;;;5093041;28;20205;-58
2022/05/11 03:31:33;;;;;;;9.87;9.07;;;18.20;1.00;;;;;;5102134;28;20239;-59
2022/05/11 03:36:43;;;;;;;9.47;8.73;;;18.20;1.00;;;;;;5103858;28;20519;-59
2022/05/11 03:39:10;;;;;;;9.50;8.60;;;18.20;1.00;;;;;;5107300;28;21285;-59
2022/05/11 03:41:35;;;;;;;10.43;9.60;;;18.20;1.00;;;;;;5100069;28;20182;-58
2022/05/11 03:44:01;;;;;;;9.93;9.03;;;18.30;1.00;;;;;;5106967;28;20488;-60
2022/05/11 03:46:26;;;;;;;10.07;9.23;;;18.30;1.00;;;;;;5104487;28;20186;-59
2022/05/11 03:48:52;;;;;;;10.23;9.40;;;18.30;1.00;;;;;;5103256;28;20210;-59
2022/05/11 03:51:17;;;;;;;10.30;9.40;;;18.30;1.00;;;;;;5100463;28;20701;-58
2022/05/11 03:53:43;;;;;;;9.50;8.77;;;18.30;1.00;;;;;;5097597;28;20170;-59
2022/05/11 03:56:09;;;;;;;9.57;8.67;;;18.30;1.00;;;;;;5097827;28;20182;-59
2022/05/11 03:58:34;;;;;;;10.07;9.27;;;18.30;1.00;;;;;;5105637;28;20185;-58
2022/05/11 04:01:00;;;;;;;9.90;9.00;;;18.30;1.00;;;;;;5105440;28;20194;-58
2022/05/11 04:03:25;;;;;;;9.13;8.43;;;18.40;1.00;;;;;;5112835;28;20250;-58
2022/05/11 04:05:52;;;;;;;9.77;9.00;;;18.40;1.00;;;;;;5102257;28;20255;-59
2022/05/11 04:08:18;;;;;;;10.40;9.43;;;18.40;1.00;;;;;;5097732;28;20211;-61
2022/05/11 04:10:43;;;;;;;9.50;8.80;;;18.50;1.00;;;;;;5109535;28;20447;-62
2022/05/11 04:13:09;;;;;;;10.33;9.20;;;18.50;1.00;;;;;;5106864;28;21202;-62
2022/05/11 04:15:34;;;;;;;10.37;9.47;;;18.60;1.00;;;;;;5107418;28;20192;-62
2022/05/11 04:18:00;;;;;;;9.33;8.53;;;18.70;1.00;;;;;;5111133;28;20206;-61
2022/05/11 04:20:26;;;;;;;9.23;8.53;;;18.80;1.00;;;;;;5097888;28;20567;-62
2022/05/11 04:22:51;;;;;;;10.00;9.10;;;18.80;1.00;;;;;;5101281;28;20190;-62
2022/05/11 04:25:17;;;;;;;9.57;8.67;;;18.80;1.00;;;;;;5100924;28;20185;-61
2022/05/11 04:27:47;;;;;;;12.53;10.00;;;18.90;1.00;;;;;;5095437;28;20286;-62
2022/05/11 04:30:14;;;;;;;9.60;8.80;;;18.90;1.00;;;;;;5109976;28;20190;-61
2022/05/11 04:32:40;;;;;;;10.00;9.27;;;18.90;1.00;;;;;;5105146;28;20976;-61
2022/05/11 04:35:07;;;;;;;11.73;9.87;;;19.00;1.00;;;;;;5110784;28;20443;-62
2022/05/11 04:37:32;;;;;;;10.30;9.33;;;19.00;1.00;;;;;;5110666;28;20439;-64
2022/05/11 04:39:58;;;;;;;11.17;10.17;;;19.10;1.00;;;;;;5106933;28;20448;-61
2022/05/11 04:42:24;;;;;;;11.23;10.23;;;19.10;1.00;;;;;;5107806;28;20182;-60
2022/05/11 04:44:49;;;;;;;10.67;9.87;;;19.10;1.00;;;;;;5107307;28;20257;-62
2022/05/11 04:47:19;;;;;;;11.20;8.63;;;19.10;1.00;;;;;;5107629;28;20671;-62
2022/05/11 04:49:44;;;;;;;12.70;9.30;;;19.20;1.00;;;;;;5099389;28;20210;-62
2022/05/11 04:52:13;;;;;;;13.07;10.50;;;19.20;1.00;;;;;;5101465;28;20493;-63
2022/05/11 04:54:44;;;;;;;14.00;10.10;;;19.30;1.00;;;;;;5098862;28;20179;-62
2022/05/11 04:57:11;;;;;;;10.43;9.43;;;19.40;1.00;;;;;;5093803;28;20444;-61
2022/05/11 04:59:40;;;;;;;10.10;9.20;;;19.40;1.00;;;;;;5106716;28;20410;-59
2022/05/11 05:02:06;;;;;;;10.80;9.70;;;19.40;1.00;;;;;;5099062;28;20422;-59
2022/05/11 05:04:32;;;;;;;13.07;9.50;;;19.50;1.00;;;;;;5107782;28;20448;-58
2022/05/11 05:06:58;;;;;;;10.07;9.30;;;19.40;1.00;;;;;;5100518;28;20444;-59
2022/05/11 05:09:24;;;;;;;30.33;13.13;;;19.50;1.00;;;;;;5107831;28;20514;-59
2022/05/11 05:11:50;;;;;;;16.97;10.13;;;19.60;1.00;;;;;;5100041;28;20279;-58
2022/05/11 05:14:16;;;;;;;10.27;9.37;;;19.60;1.00;;;;;;5107758;28;20878;-58
2022/05/11 05:16:42;;;;;;;13.03;10.37;;;19.70;1.00;;;;;;5105223;28;20431;-58
2022/05/11 05:19:08;;;;;;;19.90;10.77;;;19.80;1.00;;;;;;5100177;28;20818;-59
2022/05/11 05:21:33;;;;;;;10.43;9.40;;;19.70;1.00;;;;;;5101576;28;20182;-58
2022/05/11 05:23:59;;;;;;;10.03;8.87;;;19.80;1.00;;;;;;5101896;28;20452;-58
2022/05/11 05:26:26;;;;;;;11.00;9.90;;;20.10;1.00;;;;;;5109430;28;20207;-58
2022/05/11 05:31:36;;;;;;;19.80;10.07;;;20.20;1.00;;;;;;5103308;28;20450;-57
2022/05/11 05:34:01;;;;;;;11.00;9.10;;;21.10;1.00;;;;;;5109700;28;20443;-60
2022/05/11 05:36:28;;;;;;;9.90;9.00;;;20.40;1.00;;;;;;5102400;28;20809;-59
2022/05/11 05:38:55;;;;;;;10.20;9.20;;;20.70;1.00;;;;;;5104880;28;20649;-59
2022/05/11 05:41:21;;;;;;;9.83;8.93;;;20.80;1.00;;;;;;5106362;28;20488;-59
2022/05/11 05:43:46;;;;;;;10.90;9.80;;;20.90;1.00;;;;;;5101950;28;20505;-58
2022/05/11 05:46:16;;;;;;;10.17;9.27;;;21.10;1.00;;;;;;5110117;28;20455;-58
2022/05/11 05:48:42;;;;;;;12.70;9.83;;;;;;;;;;5109898;28;20315;-58
2022/05/11 05:51:10;;;;;;;9.80;8.87;;;21.20;1.00;;;;;;5108084;28;20451;-57
2022/05/11 05:53:36;;;;;;;9.10;7.93;;;21.30;1.00;;;;;;5095639;28;20498;-59
2022/05/11 05:56:05;;;;;;;10.03;8.90;;;21.50;1.00;;;;;;5092741;28;20456;-60
2022/05/11 05:58:30;;;;;;;9.53;8.60;;;21.50;1.00;;;;;;5110568;28;20951;-59
2022/05/11 06:00:56;;;;;;;8.83;8.13;;;21.60;1.00;;;;;;5102720;28;20444;-58
2022/05/11 06:03:25;;;;;;;9.13;8.23;;;21.80;1.00;;;;;;5093216;28;20636;-58
2022/05/11 06:05:50;;;;;;;9.03;8.13;;;21.90;1.00;;;;;;5095642;28;20194;-58
2022/05/11 06:08:16;;;;;;;17.07;9.37;;;22.20;1.00;;;;;;5091369;28;20482;-57
2022/05/11 06:10:43;;;;;;;14.23;9.73;;;22.50;1.00;;;;;;5096498;28;20675;-58
2022/05/11 06:13:09;;;;;;;11.43;8.30;;;22.60;1.00;;;;;;5096791;28;20615;-59
2022/05/11 06:15:38;;;;;;;8.73;7.93;;;22.70;1.00;;;;;;5091523;28;20480;-59
2022/05/11 06:18:05;;;;;;;8.40;7.40;;;22.90;1.00;;;;;;5102761;28;20194;-57
2022/05/11 06:20:31;;;;;;;9.93;8.60;;;23.10;1.00;;;;;;5108890;28;20490;-59
2022/05/11 06:22:57;;;;;;;17.70;8.00;;;23.40;1.00;;;;;;5100436;28;20886;-59
2022/05/11 06:25:23;;;;;;;8.50;7.67;;;23.90;1.00;;;;;;5093264;28;20194;-61
2022/05/11 06:27:49;;;;;;;6.30;5.80;;;24.40;1.00;;;;;;5096039;28;20204;-59
2022/05/11 06:30:16;;;;;;;8.40;7.60;;;24.40;1.00;;;;;;5109900;28;20414;-59
2022/05/11 06:32:42;;;;;;;7.60;5.70;;;24.80;1.00;;;;;;5107893;28;20482;-58
2022/05/11 06:35:08;;;;;;;10.67;6.20;;;25.10;1.00;;;;;;5111343;28;20516;-59
2022/05/11 06:37:33;;;;;;;6.57;5.97;;;25.40;1.00;;;;;;5103556;28;20247;-57
2022/05/11 06:39:59;;;;;;;7.63;5.67;;;25.60;1.00;;;;;;5092232;28;20518;-58
2022/05/11 06:42:25;;;;;;;6.67;6.07;;;25.50;1.00;;;;;;5100061;28;20635;-59
2022/05/11 06:44:50;;;;;;;6.50;6.10;;;25.40;1.00;;;;;;5110911;28;20231;-59
2022/05/11 06:47:17;;;;;;;6.87;6.27;;;25.40;1.00;;;;;;5103586;28;20194;-58
2022/05/11 06:49:42;;;;;;;7.43;6.20;;;25.50;1.00;;;;;;5107927;28;20205;-57
2022/05/11 06:52:08;;;;;;;6.90;6.27;;;25.30;1.00;;;;;;5105462;28;20435;-59
2022/05/11 07:00:03;;;;;;;7.50;5.57;;;25.50;1.00;;;;;;5106183;28;21003;-58
2022/05/11 07:02:28;;;;;;;7.30;6.53;;;25.40;1.00;;;;;;5102082;28;20505;-59
2022/05/11 07:04:54;;;;;;;6.57;6.00;;;25.60;1.00;;;;;;5106723;28;20814;-60
2022/05/11 07:07:19;;;;;;;6.60;5.57;;;25.60;1.00;;;;;;5107834;28;20201;-59
2022/05/11 07:09:45;;;;;;;7.33;6.40;;;25.70;1.00;;;;;;5101449;28;20202;-59
2022/05/11 07:12:17;;;;;;;7.10;6.43;;;25.70;1.00;;;;;;5090073;28;20186;-59
2022/05/11 07:14:54;;;;;;;7.00;6.30;;;25.90;1.00;;;;;;5095884;28;20855;-59
2022/05/11 07:17:25;;;;;;;7.00;5.80;;;25.90;1.00;;;;;;5108930;28;20524;-60
2022/05/11 07:19:50;;;;;;;7.53;5.43;;;25.90;1.00;;;;;;5108753;28;20475;-58
2022/05/11 07:22:16;;;;;;;10.50;6.23;;;25.90;1.00;;;;;;5095610;28;20935;-59
2022/05/11 07:24:43;;;;;;;5.97;5.57;;;25.90;1.00;;;;;;5102218;28;20192;-60
2022/05/11 07:27:08;;;;;;;5.87;5.37;;;26.20;1.00;;;;;;5074911;28;20194;-59
2022/05/11 07:29:34;;;;;;;6.70;5.90;;;26.40;1.00;;;;;;5109789;28;20479;-60
2022/05/11 07:32:00;;;;;;;7.13;5.50;;;26.60;1.00;;;;;;5098919;28;20921;-59
2022/05/11 07:34:26;;;;;;;6.30;5.70;;;26.70;1.00;;;;;;5096790;28;20187;-59
2022/05/11 07:36:54;;;;;;;6.17;5.63;;;26.80;1.00;;;;;;5101800;28;20190;-58
2022/05/11 07:39:22;;;;;;;5.90;5.30;;;26.80;1.00;;;;;;5100821;28;21590;-58
2022/05/11 07:41:47;;;;;;;6.13;5.20;;;26.90;1.00;;;;;;5094141;28;20807;-59
2022/05/11 07:44:15;;;;;;;6.73;5.37;;;27.00;1.00;;;;;;5109277;28;20466;-58
2022/05/11 07:46:41;;;;;;;9.33;5.50;;;26.70;1.00;;;;;;5090910;28;20191;-59
2022/05/11 07:49:07;;;;;;;5.93;5.43;;;;;;;;;;5094281;28;20463;-59
2022/05/11 07:51:35;;;;;;;5.93;5.33;;;26.80;1.00;;;;;;5110277;28;20459;-58
2022/05/11 07:54:00;;;;;;;6.60;5.90;;;26.90;1.00;;;;;;5110253;28;20923;-58
2022/05/11 08:01:54;;;;;;;6.33;5.73;;;27.00;1.00;;;;;;5102513;28;21004;-59
2022/05/11 08:04:20;;;;;;;6.47;5.77;;;26.70;1.00;;;;;;5090069;28;20437;-59
2022/05/11 08:06:46;;;;;;;8.23;5.77;;;26.60;1.00;;;;;;5089834;28;20178;-58
2022/05/11 08:09:13;;;;;;;6.40;5.80;;;26.80;1.00;;;;;;5089943;28;20212;-58
2022/05/11 08:11:39;;;;;;;6.33;5.73;;;27.10;1.00;;;;;;5089782;28;20262;-58
2022/05/11 08:14:04;;;;;;;5.53;5.10;;;27.30;1.00;;;;;;5090052;28;20896;-59
2022/05/11 08:16:30;;;;;;;5.70;5.13;;;27.30;1.00;;;;;;5090012;28;20178;-58
2022/05/11 08:18:56;;;;;;;6.33;5.50;;;27.30;1.00;;;;;;5089641;28;20525;-59
2022/05/11 08:21:21;;;;;;;5.93;5.43;;;27.50;1.00;;;;;;5089746;28;20171;-59
2022/05/11 08:23:49;;;;;;;5.67;5.17;;;27.50;1.00;;;;;;5089514;28;20571;-59
2022/05/11 08:26:15;;;;;;;6.27;5.67;;;27.50;1.00;;;;;;5093409;28;20175;-59
2022/05/11 08:28:40;;;;;;;10.00;5.20;;;27.40;1.00;;;;;;5089330;28;20460;-59
2022/05/11 08:33:50;;;;;;;6.70;5.00;;;27.00;1.00;;;;;;5089840;28;20228;-59
2022/05/11 08:36:17;;;;;;;6.60;5.90;;;26.90;1.00;;;;;;5089583;28;20910;-59
2022/05/11 08:38:45;;;;;;;6.20;5.47;;;26.90;1.00;;;;;;5091536;28;20228;-60
2022/05/11 08:41:26;;;;;;;5.60;5.13;;;26.80;1.00;;;;;;5093277;28;20465;-58
2022/05/11 08:44:14;;;;;;;5.97;4.87;;;26.90;1.00;;;;;;5092943;28;20475;-59
2022/05/11 08:47:07;;;;;;;7.13;5.30;;;26.90;1.00;;;;;;5109529;28;20443;-60
2022/05/11 08:49:55;;;;;;;4.97;4.57;;;27.00;1.00;;;;;;5113692;28;20456;-59
2022/05/11 08:52:39;;;;;;;5.20;4.70;;;27.00;1.00;;;;;;5106425;28;20418;-59
2022/05/11 08:55:27;;;;;;;5.33;4.60;;;26.90;1.00;;;;;;5092801;28;20431;-59
2022/05/11 08:57:54;;;;;;;5.43;4.73;;;26.70;1.00;;;;;;5110782;28;20459;-60
2022/05/11 09:00:21;;;;;;;5.53;5.03;;;26.60;1.00;;;;;;5112977;28;20428;-54
2022/05/11 09:02:54;;;;;;;11.97;4.80;;;26.70;1.00;;;;;;5113249;28;20765;-52
2022/05/11 09:05:26;;;;;;;5.90;4.67;;;26.80;1.00;;;;;;5094143;28;20465;-54
2022/05/11 09:07:53;;;;;;;6.10;5.30;;;26.80;1.00;;;;;;5095896;28;20436;-55
2022/05/11 09:10:26;;;;;;;5.97;4.33;;;26.90;1.00;;;;;;5092479;28;20440;-53
2022/05/11 09:12:57;;;;;;;5.13;4.43;;;27.10;1.00;;;;;;5092771;28;20825;-54
2022/05/11 09:15:43;;;;;;;7.07;4.60;;;28.30;1.00;;;;;;5111935;28;20435;-55
2022/05/11 09:18:08;;;;;;;5.80;5.10;;;27.30;1.00;;;;;;5106016;28;20445;-54
2022/05/11 09:20:35;;;;;;;5.77;5.07;;;27.30;1.00;;;;;;5092271;28;20447;-55
2022/05/11 09:23:03;;;;;;;5.10;4.60;;;27.50;1.00;;;;;;5092766;28;20522;-54
2022/05/11 09:25:31;;;;;;;5.47;4.67;;;27.70;1.00;;;;;;5092361;28;20436;-55
2022/05/11 09:28:19;;;;;;;6.43;5.13;;;27.90;1.00;;;;;;5096947;28;20823;-56
2022/05/11 09:31:05;;;;;;;5.63;4.30;;;27.80;1.00;;;;;;5096748;28;20828;-55
2022/05/11 09:33:34;;;;;;;7.60;4.60;;;27.70;1.00;;;;;;5112335;28;20435;-55
2022/05/11 09:36:02;;;;;;;5.57;4.73;;;27.20;1.00;;;;;;5112512;28;20399;-55
2022/05/11 09:38:40;;;;;;;8.00;4.50;;;27.30;1.00;;;;;;5112474;28;20822;-55
2022/05/11 09:41:13;;;;;;;5.53;4.70;;;27.30;1.00;;;;;;5112308;28;20591;-54
2022/05/11 09:43:46;;;;;;;5.97;5.37;;;27.20;1.00;;;;;;5111592;28;20513;-54
2022/05/11 09:46:27;;;;;;;4.90;4.50;;;27.00;1.00;;;;;;5112425;28;20419;-54
2022/05/11 09:49:00;;;;;;;5.47;4.97;;;27.00;1.00;;;;;;5102458;28;20460;-53
2022/05/11 09:51:42;;;;;;;5.30;4.80;;;27.10;1.00;;;;;;5104821;28;20432;-55
2022/05/11 09:54:42;;;;;;;7.10;4.83;;;27.30;1.00;;;;;;5112071;28;20434;-54
2022/05/11 09:57:08;;;;;;;4.90;4.40;;;27.30;1.00;;;;;;5112174;28;20420;-54
2022/05/11 09:59:43;;;;;;;5.30;4.53;;;27.30;1.00;;;;;;5096505;28;20588;-52
2022/05/11 10:02:26;;;;;;;7.37;5.10;;;27.80;1.00;;;;;;5111747;28;20235;-53
2022/05/11 10:05:05;;;;;;;5.63;4.33;;;25.50;1.00;;;;;;5111788;28;20399;-53
2022/05/11 10:08:11;;;;;;;5.23;4.77;;;27.60;1.00;;;;;;5092675;28;20943;-53
2022/05/11 10:10:43;;;;;;;4.93;4.57;;;27.40;1.00;;;;;;5079073;28;20431;-54
2022/05/11 10:13:20;;;;;;;5.40;4.63;;;27.40;1.00;;;;;;5109688;28;20882;-56
2022/05/11 10:21:50;;;;;;;5.17;4.77;;;28.00;1.00;;;;;;5091440;28;20840;-54
2022/05/11 10:24:24;;;;;;;5.10;4.70;;;28.30;1.00;;;;;;5111042;28;20568;-54
2022/05/11 10:26:57;;;;;;;5.10;4.57;;;28.80;1.00;;;;;;5111206;28;20436;-55
2022/05/11 10:29:41;;;;;;;5.73;5.00;;;29.10;1.00;;;;;;5111595;28;20441;-55
2022/05/11 10:32:28;;;;;;;5.87;5.37;;;29.00;1.00;;;;;;5111345;28;20533;-54
2022/05/11 10:34:53;;;;;;;5.53;5.03;;;29.10;1.00;;;;;;5090878;28;20441;-55
2022/05/11 10:37:39;;;;;;;5.50;5.00;;;28.80;1.00;;;;;;5095608;28;20956;-53
2022/05/11 10:40:15;;;;;;;6.47;4.63;;;28.70;1.00;;;;;;5057696;28;20213;-55
2022/05/11 10:43:04;;;;;;;5.23;4.77;;;28.70;1.00;;;;;;5111391;28;20421;-53
2022/05/11 10:45:47;;;;;;;5.10;4.40;;;28.80;1.00;;;;;;5110745;28;21007;-55
2022/05/11 10:48:37;;;;;;;5.93;4.20;;;28.80;1.00;;;;;;5111002;28;21017;-53
2022/05/11 10:51:24;;;;;;;4.30;3.97;;;29.20;1.00;;;;;;5110839;28;20998;-55
2022/05/11 10:54:10;;;;;;;5.87;4.40;;;29.10;1.00;;;;;;5111047;28;20944;-54
2022/05/11 10:56:42;;;;;;;5.30;4.90;;;28.90;1.00;;;;;;5106577;28;20937;-53
2022/05/11 10:59:32;;;;;;;5.70;4.93;;;28.90;1.00;;;;;;5090372;28;20437;-55
2022/05/11 11:02:17;;;;;;;6.97;4.63;;;29.10;1.00;;;;;;5092192;28;21704;-56
2022/05/11 11:04:51;;;;;;;5.70;5.20;;;29.20;1.00;;;;;;5090409;28;20447;-54
2022/05/11 11:07:30;;;;;;;4.97;4.57;;;28.90;1.00;;;;;;5090748;28;20454;-56
2022/05/11 11:10:22;;;;;;;4.40;4.00;;;28.60;1.00;;;;;;5104673;28;20563;-55
2022/05/11 11:12:57;;;;;;;4.63;4.33;;;28.70;1.00;;;;;;5090236;28;21206;-53
2022/05/11 11:15:28;;;;;;;5.87;5.00;;;28.90;1.00;;;;;;5100925;28;20518;-56
2022/05/11 11:17:55;;;;;;;4.73;4.33;;;29.20;1.00;;;;;;5110595;28;20972;-54
2022/05/11 11:20:22;;;;;;;7.07;4.77;;;29.00;1.00;;;;;;5110241;28;20766;-54
2022/05/11 11:23:16;;;;;;;7.70;5.00;;;28.70;1.00;;;;;;5110591;28;20432;-53
2022/05/11 11:25:42;;;;;;;6.17;4.27;;;28.80;1.00;;;;;;5110450;28;20434;-54
2022/05/11 11:28:12;;;;;;;4.83;4.40;;;28.80;1.00;;;;;;5109765;28;20490;-55
2022/05/11 11:30:39;;;;;;;5.10;4.50;;;29.10;1.00;;;;;;5110044;28;20210;-56
2022/05/11 11:33:12;;;;;;;4.80;4.33;;;28.70;1.00;;;;;;5110638;28;20435;-53
2022/05/11 11:36:14;;;;;;;4.43;4.03;;;28.80;1.00;;;;;;5103544;28;20485;-53
2022/05/11 11:38:39;;;;;;;5.23;4.63;;;28.80;1.00;;;;;;5076499;28;20439;-54
2022/05/11 11:41:14;;;;;;;5.50;5.00;;;29.40;1.00;;;;;;5110467;28;20800;-55
2022/05/11 11:43:53;;;;;;;6.07;5.47;;;29.30;1.00;;;;;;5110216;28;20189;-53
2022/05/11 11:46:42;;;;;;;4.37;3.97;;;29.00;1.00;;;;;;5098756;28;20527;-56
2022/05/11 11:49:12;;;;;;;4.30;3.90;;;29.00;1.00;;;;;;5109977;28;20460;-54
2022/05/11 11:52:00;;;;;;;6.60;4.03;;;29.00;1.00;;;;;;5109992;28;20420;-55
2022/05/11 11:54:38;;;;;;;4.33;3.93;;;28.80;1.00;;;;;;5110654;28;20733;-55
2022/05/11 11:57:14;;;;;;;4.17;3.80;;;28.80;1.00;;;;;;5106796;28;20436;-55
2022/05/11 11:59:49;;;;;;;7.70;4.73;;;28.80;1.00;;;;;;5106866;28;20438;-55
2022/05/11 12:02:41;;;;;;;6.27;3.70;;;28.70;1.00;;;;;;5107251;28;20802;-54
2022/05/11 12:05:32;;;;;;;6.57;3.63;;;28.90;1.00;;;;;;5089559;28;20950;-52
2022/05/11 12:16:57;;;;;;;6.60;4.20;;;29.00;1.00;;;;;;5114637;28;20438;-55
2022/05/11 12:19:25;;;;;;;4.70;3.93;;;29.10;1.00;;;;;;5113907;28;20522;-55
2022/05/11 12:21:58;;;;;;;4.97;4.10;;;29.20;1.00;;;;;;5113965;28;20469;-55
2022/05/11 12:24:36;;;;;;;4.90;3.63;;;29.40;1.00;;;;;;5113923;28;20968;-54
2022/05/11 12:27:05;;;;;;;4.20;3.80;;;29.60;1.00;;;;;;5111155;28;20438;-56
2022/05/11 12:32:33;;;;;;;5.60;4.50;;;29.20;1.00;;;;;;5113641;28;21026;-56
2022/05/11 12:35:12;;;;;;;5.63;4.10;;;29.10;1.00;;;;;;5113577;28;20432;-52
2022/05/11 12:37:38;;;;;;;3.87;3.50;;;29.10;1.00;;;;;;5113468;28;20431;-54
2022/05/11 12:40:14;;;;;;;5.83;4.20;;;29.00;1.00;;;;;;5113212;28;20440;-55
2022/05/11 12:42:52;;;;;;;4.97;4.27;;;29.20;1.00;;;;;;5102449;28;20454;-54
2022/05/11 12:45:25;;;;;;;4.53;3.83;;;29.10;1.00;;;;;;5092802;28;20443;-54
2022/05/11 12:47:55;;;;;;;4.87;3.63;;;29.10;1.00;;;;;;5111631;28;20428;-54
2022/05/11 12:50:28;;;;;;;8.40;4.00;;;29.10;1.00;;;;;;5113284;28;20459;-54
2022/05/11 12:53:01;;;;;;;4.97;4.00;;;29.30;1.00;;;;;;5113305;28;20519;-55
2022/05/11 12:55:33;;;;;;;4.43;4.03;;;29.30;1.00;;;;;;5113237;28;20940;-54
2022/05/11 12:57:59;;;;;;;4.33;3.67;;;29.50;1.00;;;;;;5113119;28;20440;-52
2022/05/11 13:00:27;;;;;;;4.97;4.33;;;29.40;1.00;;;;;;5095561;28;20433;-54
2022/05/11 13:02:52;;;;;;;4.20;3.80;;;29.60;1.00;;;;;;5112346;28;20178;-56
2022/05/11 13:05:21;;;;;;;4.30;3.70;;;29.60;1.00;;;;;;5112082;28;20730;-53
2022/05/11 13:08:03;;;;;;;5.23;3.97;;;29.30;1.00;;;;;;5092710;28;20187;-55
2022/05/11 13:10:34;;;;;;;7.53;4.67;;;29.10;1.00;;;;;;5110911;28;20436;-54
2022/05/11 13:13:07;;;;;;;6.97;4.20;;;29.00;1.00;;;;;;5113001;28;20507;-55
2022/05/11 13:15:44;;;;;;;5.73;4.40;;;29.10;1.00;;;;;;5097052;28;20776;-55
2022/05/11 13:18:14;;;;;;;4.33;3.93;;;29.10;1.00;;;;;;5092433;28;20811;-56
2022/05/11 13:20:43;;;;;;;4.60;4.20;;;29.30;1.00;;;;;;5092181;28;20498;-55
2022/05/11 13:23:33;;;;;;;8.50;4.80;;;29.20;1.00;;;;;;5098837;28;20448;-55
2022/05/11 13:26:25;;;;;;;4.00;3.70;;;29.10;1.00;;;;;;5111546;27;20444;-55
2022/05/11 13:28:59;;;;;;;5.70;3.80;;;29.00;1.00;;;;;;5071726;28;20837;-55
2022/05/11 13:31:29;;;;;;;4.33;3.93;;;28.90;1.00;;;;;;5102503;28;20800;-54
2022/05/11 13:33:55;;;;;;;3.93;3.63;;;29.00;1.00;;;;;;5094463;28;20445;-53
2022/05/11 13:36:25;;;;;;;4.40;4.00;;;29.00;1.00;;;;;;5102684;28;20802;-55
2022/05/11 13:39:00;;;;;;;7.73;4.20;;;29.00;1.00;;;;;;5091618;28;20428;-55
2022/05/11 13:41:33;;;;;;;4.27;3.87;;;29.00;1.00;;;;;;5110295;28;20424;-55
2022/05/11 13:44:21;;;;;;;4.93;4.20;;;29.00;1.00;;;;;;5093794;28;20546;-55
2022/05/11 13:49:40;;;;;;;4.73;4.27;;;29.40;1.00;;;;;;5085369;28;20495;-55
2022/05/11 13:52:10;;;;;;;4.40;3.70;;;29.40;1.00;;;;;;5109531;28;20903;-56
2022/05/11 13:54:49;;;;;;;4.97;3.63;;;29.40;1.00;;;;;;5102925;28;20444;-55